Time;durP1;ratioP1;P1;durP2;ratioP2;P2;SDS_P1;SDS_P2;PMS_P1;PMS_P2;Temp;Humidity;BMP_temperature;BMP_pressure;BME280_temperature;BME280_humidity;BME280_pressure;Samples;Min_cycle;Max_cycle;Signal;HPM_P1;HPM_P2
2023/01/27 00:10:05;;;;;;;0.00;0.00;;;3.60;99.90;;;;;;6185821;23;20084;-89
2023/01/27 00:15:15;;;;;;;0.10;0.10;;;;;;;;;;6185903;23;20055;-89
2023/01/27 00:17:41;;;;;;;0.10;0.10;;;;;;;;;;6158937;23;20005;-89
2023/01/27 00:20:08;;;;;;;0.10;0.10;;;3.50;99.90;;;;;;6156092;23;20012;-91
2023/01/27 00:25:18;;;;;;;0.10;0.10;;;3.60;99.90;;;;;;6182699;23;20019;-89
2023/01/27 00:27:44;;;;;;;0.10;0.10;;;;;;;;;;6156937;23;20060;-88
2023/01/27 00:30:11;;;;;;;0.10;0.10;;;3.50;99.90;;;;;;6154751;23;20005;-89
2023/01/27 00:35:21;;;;;;;0.10;0.10;;;;;;;;;;6182232;23;20197;-90
2023/01/27 00:37:47;;;;;;;0.10;0.10;;;;;;;;;;6156705;23;20473;-88
2023/01/27 00:40:15;;;;;;;0.10;0.10;;;3.50;99.90;;;;;;6155373;23;20009;-90
2023/01/27 00:42:41;;;;;;;0.00;0.00;;;;;;;;;;6157190;23;20013;-89
2023/01/27 00:47:52;;;;;;;0.10;0.10;;;;;;;;;;6183019;23;20111;-89
2023/01/27 00:50:18;;;;;;;0.05;0.05;;;;;;;;;;6155393;23;20164;-88
2023/01/27 00:52:44;;;;;;;0.10;0.10;;;3.70;99.90;;;;;;6156650;23;20016;-90
2023/01/27 00:55:11;;;;;;;0.10;0.10;;;;;;;;;;6155668;23;20001;-88
2023/01/27 00:57:37;;;;;;;0.10;0.10;;;3.70;99.90;;;;;;6156247;23;20056;-88
2023/01/27 01:00:04;;;;;;;0.10;0.10;;;3.60;99.90;;;;;;6155974;23;20012;-88
2023/01/27 01:02:30;;;;;;;0.10;0.10;;;;;;;;;;6155915;23;20131;-88
2023/01/27 01:04:56;;;;;;;0.03;0.03;;;3.70;99.90;;;;;;6156860;23;20032;-88
2023/01/27 01:07:21;;;;;;;0.10;0.10;;;3.70;99.90;;;;;;6157645;23;20398;-87
2023/01/27 01:09:47;;;;;;;0.00;0.00;;;;;;;;;;6151801;23;20291;-89
2023/01/27 01:12:13;;;;;;;0.10;0.10;;;;;;;;;;6149124;23;20007;-89
2023/01/27 01:14:39;;;;;;;0.10;0.10;;;;;;;;;;6150600;23;20012;-89
2023/01/27 01:17:04;;;;;;;0.10;0.10;;;3.90;99.90;;;;;;6151999;23;20029;-90
2023/01/27 01:19:30;;;;;;;0.10;0.10;;;;;;;;;;6149698;23;20006;-90
2023/01/27 01:21:56;;;;;;;0.10;0.10;;;;;;;;;;6151623;23;20338;-88
2023/01/27 01:24:22;;;;;;;0.10;0.10;;;3.90;99.90;;;;;;6150844;23;20020;-89
2023/01/27 01:26:48;;;;;;;0.10;0.10;;;;;;;;;;6150456;23;20016;-88
2023/01/27 01:29:14;;;;;;;0.10;0.10;;;;;;;;;;6151253;23;20010;-88
2023/01/27 01:31:40;;;;;;;0.10;0.10;;;;;;;;;;6149129;23;20037;-89
2023/01/27 01:34:06;;;;;;;0.10;0.10;;;;;;;;;;6150633;23;20006;-88
2023/01/27 01:36:32;;;;;;;0.10;0.10;;;;;;;;;;6152021;23;20439;-89
2023/01/27 01:38:58;;;;;;;0.10;0.10;;;3.80;99.90;;;;;;6153426;23;20005;-88
2023/01/27 01:41:24;;;;;;;0.10;0.10;;;3.90;99.90;;;;;;6152407;23;20002;-88
2023/01/27 01:43:49;;;;;;;0.10;0.10;;;3.70;99.90;;;;;;6151263;23;20013;-89
2023/01/27 01:46:16;;;;;;;0.10;0.10;;;3.80;99.90;;;;;;6151343;23;20342;-90
2023/01/27 01:48:53;;;;;;;0.10;0.10;;;3.90;99.90;;;;;;6152411;23;20017;-90
2023/01/27 01:51:31;;;;;;;0.10;0.10;;;3.90;99.90;;;;;;6151712;23;20056;-90
2023/01/27 01:54:05;;;;;;;0.10;0.10;;;4.00;99.90;;;;;;6152410;23;20014;-88
2023/01/27 01:56:39;;;;;;;0.10;0.10;;;4.00;99.90;;;;;;6151392;23;20076;-88
2023/01/27 01:59:16;;;;;;;0.10;0.10;;;4.00;99.90;;;;;;6151406;23;20032;-89
2023/01/27 02:01:42;;;;;;;0.10;0.10;;;4.00;99.90;;;;;;6151498;23;20041;-88
2023/01/27 02:04:16;;;;;;;0.10;0.10;;;3.70;99.90;;;;;;6152859;23;20053;-90
2023/01/27 02:06:53;;;;;;;0.10;0.10;;;3.80;99.90;;;;;;6153690;23;20013;-89
2023/01/27 02:09:20;;;;;;;0.10;0.10;;;3.80;99.90;;;;;;6152465;23;20015;-88
2023/01/27 02:11:46;;;;;;;0.10;0.10;;;3.70;99.90;;;;;;6149808;23;20354;-88
2023/01/27 02:14:15;;;;;;;0.10;0.10;;;3.80;99.90;;;;;;6152118;23;20005;-88
2023/01/27 02:16:40;;;;;;;0.10;0.10;;;3.80;99.90;;;;;;6150734;23;20052;-88
2023/01/27 02:19:13;;;;;;;0.10;0.10;;;3.80;99.90;;;;;;6152086;23;20430;-90
2023/01/27 02:21:39;;;;;;;0.10;0.10;;;;;;;;;;6153010;23;20006;-88
2023/01/27 02:24:09;;;;;;;0.10;0.10;;;4.00;99.90;;;;;;6151613;23;20006;-89
2023/01/27 02:26:37;;;;;;;;;;;4.10;99.90;;;;;;6146134;23;20002;-87
2023/01/27 02:29:08;;;;;;;0.10;0.10;;;4.10;99.90;;;;;;6150289;23;19908;-89
2023/01/27 02:31:34;;;;;;;0.10;0.10;;;3.80;99.90;;;;;;6150520;23;20001;-90
2023/01/27 02:34:16;;;;;;;0.10;0.10;;;3.70;99.90;;;;;;6152347;23;20032;-88
2023/01/27 02:36:46;;;;;;;0.10;0.10;;;4.10;99.90;;;;;;6152144;23;20064;-90
2023/01/27 02:39:15;;;;;;;0.10;0.10;;;3.90;99.90;;;;;;6152719;23;20001;-88
2023/01/27 02:41:44;;;;;;;0.10;0.10;;;4.10;99.90;;;;;;6150935;23;20056;-89
2023/01/27 02:44:10;;;;;;;0.10;0.10;;;4.00;99.90;;;;;;6151333;23;20002;-88
2023/01/27 02:46:36;;;;;;;0.10;0.10;;;;;;;;;;6150942;23;20012;-88
2023/01/27 02:49:02;;;;;;;0.10;0.10;;;4.20;99.90;;;;;;6152315;23;20009;-88
2023/01/27 02:51:28;;;;;;;0.10;0.10;;;;;;;;;;6151729;23;20060;-87
2023/01/27 02:53:54;;;;;;;0.15;0.15;;;;;;;;;;6151775;23;20007;-89
2023/01/27 02:56:20;;;;;;;0.10;0.10;;;;;;;;;;6150811;23;20084;-88
2023/01/27 02:58:45;;;;;;;0.10;0.10;;;4.20;99.90;;;;;;6151781;23;20383;-89
2023/01/27 03:01:11;;;;;;;0.10;0.10;;;4.70;99.90;;;;;;6151226;23;20339;-89
2023/01/27 03:03:42;;;;;;;0.10;0.10;;;4.40;99.90;;;;;;6151865;23;20443;-88
2023/01/27 03:06:09;;;;;;;0.10;0.10;;;;;;;;;;6155352;23;20013;-88
2023/01/27 03:08:34;;;;;;;0.08;0.08;;;;;;;;;;6152581;23;20088;-89
2023/01/27 03:11:00;;;;;;;0.10;0.10;;;;;;;;;;6149366;23;20435;-89
2023/01/27 03:13:27;;;;;;;0.10;0.10;;;4.00;99.90;;;;;;6151846;23;20013;-88
2023/01/27 03:18:37;;;;;;;0.03;0.03;;;4.10;99.90;;;;;;6152794;23;20020;-89
2023/01/27 03:21:05;;;;;;;0.10;0.10;;;4.00;99.90;;;;;;6151253;23;20009;-89
2023/01/27 03:23:33;;;;;;;0.10;0.10;;;4.10;99.90;;;;;;6151415;23;20016;-90
2023/01/27 03:26:00;;;;;;;0.10;0.10;;;4.00;99.90;;;;;;6151675;23;20101;-88
2023/01/27 03:28:26;;;;;;;0.10;0.10;;;;;;;;;;6149236;23;20037;-88
2023/01/27 03:30:57;;;;;;;0.10;0.10;;;4.10;99.90;;;;;;6148895;23;20005;-88
2023/01/27 03:33:23;;;;;;;0.10;0.10;;;;;;;;;;6150723;23;20012;-91
2023/01/27 03:46:46;;;;;;;0.10;0.10;;;;;;;;;;6153871;23;20410;-89
2023/01/27 03:49:12;;;;;;;0.10;0.10;;;;;;;;;;6151170;23;20002;-88
2023/01/27 03:51:38;;;;;;;0.10;0.10;;;;;;;;;;6151540;23;20028;-90
2023/01/27 03:54:04;;;;;;;0.08;0.08;;;;;;;;;;6150287;23;20324;-90
2023/01/27 03:56:29;;;;;;;0.10;0.10;;;4.30;99.90;;;;;;6150107;23;20032;-88
2023/01/27 03:58:56;;;;;;;0.10;0.10;;;;;;;;;;6150517;23;20006;-88
2023/01/27 04:01:23;;;;;;;0.05;0.05;;;4.30;99.90;;;;;;6150865;23;20002;-88
2023/01/27 04:06:57;;;;;;;0.10;0.10;;;4.40;99.90;;;;;;6153021;23;20461;-90
2023/01/27 04:09:32;;;;;;;0.10;0.10;;;4.20;99.90;;;;;;6149923;23;20386;-87
2023/01/27 04:11:59;;;;;;;0.10;0.10;;;4.40;99.90;;;;;;6152026;23;20114;-88
2023/01/27 04:14:30;;;;;;;0.00;0.00;;;4.40;99.90;;;;;;6150030;23;20005;-88
2023/01/27 04:17:02;;;;;;;0.10;0.10;;;4.40;99.90;;;;;;6151369;23;20446;-87
2023/01/27 04:19:28;;;;;;;0.10;0.10;;;;;;;;;;6149615;23;20095;-90
2023/01/27 04:21:55;;;;;;;0.10;0.10;;;4.40;99.90;;;;;;6151385;23;20005;-88
2023/01/27 04:24:24;;;;;;;0.10;0.10;;;4.30;99.90;;;;;;6150412;23;20013;-88
2023/01/27 04:26:55;;;;;;;0.00;0.00;;;4.30;99.90;;;;;;6149464;23;20332;-86
2023/01/27 04:29:29;;;;;;;0.10;0.10;;;4.40;99.90;;;;;;6149748;23;20029;-88
2023/01/27 04:31:56;;;;;;;0.00;0.00;;;;;;;;;;6151334;23;20036;-88
2023/01/27 04:34:22;;;;;;;0.10;0.10;;;4.30;99.90;;;;;;6150937;23;20002;-91
2023/01/27 04:36:48;;;;;;;0.05;0.05;;;;;;;;;;6151293;23;20072;-89
2023/01/27 04:39:14;;;;;;;0.03;0.03;;;;;;;;;;6152473;23;20493;-90
2023/01/27 04:41:40;;;;;;;0.10;0.10;;;;;;;;;;6151756;23;20182;-89
2023/01/27 04:44:06;;;;;;;0.00;0.00;;;4.20;99.90;;;;;;6144732;23;20087;-89
2023/01/27 04:46:33;;;;;;;0.10;0.10;;;4.10;99.90;;;;;;6150108;23;20338;-89
2023/01/27 04:48:59;;;;;;;0.05;0.05;;;5.50;99.90;;;;;;6152584;23;20033;-90
2023/01/27 04:51:25;;;;;;;0.10;0.10;;;4.00;99.90;;;;;;6151306;23;20431;-90
2023/01/27 04:53:51;;;;;;;0.10;0.10;;;;;;;;;;6152142;23;20010;-89
2023/01/27 04:56:20;;;;;;;0.10;0.10;;;4.10;99.90;;;;;;6150166;23;20439;-90
2023/01/27 04:58:45;;;;;;;0.10;0.10;;;;;;;;;;6151474;23;20439;-88
2023/01/27 05:01:11;;;;;;;0.10;0.10;;;4.20;99.90;;;;;;6149247;23;20013;-90
2023/01/27 05:03:36;;;;;;;0.10;0.10;;;4.20;99.90;;;;;;6149387;23;20039;-88
2023/01/27 05:06:03;;;;;;;0.10;0.10;;;4.20;99.90;;;;;;6149968;23;20082;-89
2023/01/27 05:08:29;;;;;;;0.10;0.10;;;;;;;;;;6151030;23;20060;-86
2023/01/27 05:10:55;;;;;;;0.10;0.10;;;;;;;;;;6148547;23;20010;-88
2023/01/27 05:13:21;;;;;;;0.10;0.10;;;;;;;;;;6150303;23;20352;-89
2023/01/27 05:15:47;;;;;;;0.10;0.10;;;;;;;;;;6150233;23;20009;-88
2023/01/27 05:18:13;;;;;;;0.10;0.10;;;;;;;;;;6150328;23;20060;-89
2023/01/27 05:20:39;;;;;;;0.10;0.10;;;;;;;;;;6150735;23;20029;-90
2023/01/27 05:25:50;;;;;;;0.00;0.00;;;4.30;99.90;;;;;;6154239;23;20087;-89
2023/01/27 05:28:15;;;;;;;0.10;0.10;;;4.30;99.90;;;;;;6149951;23;20001;-88
2023/01/27 05:30:41;;;;;;;0.10;0.10;;;4.20;99.90;;;;;;6146145;23;20013;-86
2023/01/27 05:33:07;;;;;;;0.10;0.10;;;;;;;;;;6150287;23;20350;-86
2023/01/27 05:35:33;;;;;;;0.10;0.10;;;4.30;99.90;;;;;;6147978;23;20490;-88
2023/01/27 05:37:59;;;;;;;0.10;0.10;;;;;;;;;;6147002;23;20013;-88
2023/01/27 05:40:24;;;;;;;0.10;0.10;;;4.30;99.90;;;;;;6146355;23;20002;-90
2023/01/27 05:42:51;;;;;;;0.10;0.10;;;4.30;99.90;;;;;;6150735;23;20013;-91
2023/01/27 05:45:16;;;;;;;0.10;0.10;;;4.20;99.90;;;;;;6148299;23;20005;-89
2023/01/27 05:47:42;;;;;;;0.10;0.10;;;;;;;;;;6147023;23;20009;-87
2023/01/27 05:50:08;;;;;;;0.10;0.10;;;4.30;99.90;;;;;;6148318;23;20292;-86
2023/01/27 05:52:34;;;;;;;0.10;0.10;;;4.30;99.90;;;;;;6151929;23;20012;-87
2023/01/27 05:54:59;;;;;;;0.10;0.10;;;4.30;99.90;;;;;;6150960;23;20001;-88
2023/01/27 05:57:25;;;;;;;0.10;0.10;;;;;;;;;;6152999;23;20029;-88
2023/01/27 05:59:51;;;;;;;0.10;0.10;;;4.30;99.90;;;;;;6153074;23;20009;-88
2023/01/27 06:02:16;;;;;;;0.10;0.10;;;;;;;;;;6152134;23;20446;-89
2023/01/27 06:04:42;;;;;;;0.10;0.10;;;;;;;;;;6153538;23;20040;-88
2023/01/27 06:07:08;;;;;;;0.10;0.10;;;4.30;99.90;;;;;;6154695;23;20012;-88
2023/01/27 06:09:34;;;;;;;0.10;0.10;;;;;;;;;;6153987;23;20419;-88
2023/01/27 06:11:59;;;;;;;0.10;0.10;;;4.20;99.90;;;;;;6151837;23;20005;-87
2023/01/27 06:14:25;;;;;;;0.10;0.10;;;;;;;;;;6150656;23;20002;-88
2023/01/27 06:16:52;;;;;;;0.10;0.10;;;4.30;99.90;;;;;;6152626;23;19997;-87
2023/01/27 06:19:17;;;;;;;0.10;0.10;;;4.30;99.90;;;;;;6152175;23;20077;-88
2023/01/27 06:21:43;;;;;;;0.10;0.10;;;4.20;99.90;;;;;;6153522;23;20103;-88
2023/01/27 09:00:41;;;;;;;0.00;0.00;;;;;;;;;;6183169;23;20021;-90
2023/01/27 09:03:07;;;;;;;0.08;0.08;;;;;;;;;;6155235;23;20005;-90
2023/01/27 09:05:35;;;;;;;0.10;0.10;;;4.40;99.90;;;;;;6157371;23;20470;-90
2023/01/27 09:08:00;;;;;;;0.10;0.10;;;;;;;;;;6157127;23;20027;-90
2023/01/27 09:10:26;;;;;;;0.10;0.10;;;;;;;;;;6181585;23;20518;-91
2023/01/27 13:10:14;;;;;;;0.10;0.10;;;5.00;99.90;;;;;;6179959;23;20077;-88
2023/01/27 13:12:55;;;;;;;0.10;0.10;;;5.00;99.90;;;;;;6151029;23;20020;-88
2023/01/27 13:15:26;;;;;;;0.10;0.10;;;4.90;99.90;;;;;;6155265;23;20005;-87
2023/01/27 13:17:54;;;;;;;0.08;0.08;;;4.80;99.90;;;;;;6156047;23;20009;-87
2023/01/27 13:20:32;;;;;;;0.10;0.10;;;4.70;99.90;;;;;;6156412;23;20443;-88
2023/01/27 13:25:54;;;;;;;0.10;0.10;;;4.90;99.90;;;;;;6183742;23;20032;-88
2023/01/27 13:28:32;;;;;;;0.10;0.10;;;4.80;99.90;;;;;;6155359;23;20053;-91
2023/01/27 13:31:12;;;;;;;0.10;0.10;;;4.80;99.90;;;;;;6159414;23;20687;-90
2023/01/27 13:34:12;;;;;;;0.10;0.10;;;4.90;99.90;;;;;;6160608;23;20009;-91
2023/01/27 13:36:40;;;;;;;;;;;4.90;99.90;;;;;;6160996;23;20156;-88
2023/01/27 13:39:17;;;;;;;0.00;0.00;;;5.00;99.90;;;;;;6160274;23;19956;-89
2023/01/27 13:42:09;;;;;;;0.10;0.10;;;5.00;99.90;;;;;;6159203;23;20275;-88
2023/01/27 13:44:42;;;;;;;0.10;0.10;;;5.00;99.90;;;;;;6152367;23;20004;-90
2023/01/27 13:47:19;;;;;;;0.05;0.05;;;4.80;99.90;;;;;;6161677;23;20016;-90
2023/01/27 13:49:55;;;;;;;0.10;0.10;;;4.80;99.90;;;;;;6160037;23;20005;-90
2023/01/27 13:52:21;;;;;;;0.10;0.10;;;;;;;;;;6161095;23;20092;-90
2023/01/27 13:54:47;;;;;;;0.00;0.00;;;;;;;;;;6161265;23;20013;-90
2023/01/27 13:57:37;;;;;;;0.00;0.00;;;4.80;99.90;;;;;;6162073;23;20003;-91
2023/01/27 14:00:18;;;;;;;0.00;0.00;;;4.80;99.90;;;;;;6162003;23;20005;-90
2023/01/27 14:03:18;;;;;;;0.03;0.03;;;4.90;99.90;;;;;;6161294;23;20064;-90
2023/01/27 14:05:53;;;;;;;0.10;0.10;;;5.10;99.90;;;;;;6160126;23;20008;-90
2023/01/27 14:08:40;;;;;;;0.10;0.10;;;5.00;99.90;;;;;;6158945;23;20022;-89
2023/01/27 14:11:31;;;;;;;0.10;0.10;;;5.30;99.90;;;;;;6160635;23;20016;-91
2023/01/27 14:14:08;;;;;;;0.10;0.10;;;5.30;99.90;;;;;;6159005;23;20020;-90
2023/01/27 14:17:01;;;;;;;0.10;0.10;;;5.00;99.90;;;;;;6158710;23;20001;-90
2023/01/27 14:19:34;;;;;;;0.10;0.10;;;4.80;99.90;;;;;;6159207;23;20038;-90
2023/01/27 14:22:00;;;;;;;0.10;0.10;;;;;;;;;;6158875;23;20005;-91
2023/01/27 14:24:55;;;;;;;0.10;0.10;;;4.80;99.90;;;;;;6155215;23;20457;-90
2023/01/27 14:27:41;;;;;;;0.10;0.10;;;4.80;99.90;;;;;;6158325;23;20001;-90
2023/01/27 14:30:18;;;;;;;0.10;0.10;;;6.50;99.90;;;;;;6158385;23;20323;-91
2023/01/27 14:32:55;;;;;;;0.10;0.10;;;4.70;99.90;;;;;;6159222;23;20020;-90
2023/01/27 14:35:39;;;;;;;0.10;0.10;;;4.60;99.90;;;;;;6159496;23;20501;-90
2023/01/27 14:38:14;;;;;;;0.10;0.10;;;4.50;99.90;;;;;;6160462;23;20001;-91
2023/01/27 14:40:40;;;;;;;0.10;0.10;;;;;;;;;;6157579;23;20661;-92
2023/01/27 14:43:48;;;;;;;0.00;0.00;;;4.60;99.90;;;;;;6159347;23;20016;-90
2023/01/27 14:46:38;;;;;;;0.10;0.10;;;4.70;99.90;;;;;;6156843;23;20016;-90
2023/01/27 14:49:04;;;;;;;;;;;4.30;99.90;;;;;;6158740;23;20095;-89
2023/01/27 14:57:42;;;;;;;0.10;0.10;;;4.50;99.90;;;;;;6194669;23;20515;-91
2023/01/27 15:00:23;;;;;;;0.10;0.10;;;4.50;99.90;;;;;;6168793;23;20009;-91
2023/01/27 15:03:03;;;;;;;0.10;0.10;;;4.40;99.90;;;;;;6165397;23;20351;-93
2023/01/27 16:02:28;;;;;;;0.10;0.10;;;3.90;99.90;;;;;;6180075;23;20021;-87
2023/01/27 16:05:14;;;;;;;0.10;0.10;;;3.90;99.90;;;;;;6152993;23;20461;-89
2023/01/27 16:07:39;;;;;;;0.10;0.10;;;3.90;99.90;;;;;;6157119;23;20003;-88
2023/01/27 16:10:14;;;;;;;0.00;0.00;;;3.80;99.90;;;;;;6158230;23;20005;-88
2023/01/27 16:12:47;;;;;;;0.10;0.10;;;3.80;99.90;;;;;;6156046;23;20005;-89
2023/01/27 16:15:30;;;;;;;0.05;0.05;;;3.80;99.90;;;;;;6162740;23;20346;-88
2023/01/27 16:18:21;;;;;;;0.10;0.10;;;3.80;99.90;;;;;;6161435;23;20005;-89
2023/01/27 16:21:00;;;;;;;0.10;0.10;;;3.80;99.90;;;;;;6156951;23;20020;-89
2023/01/27 16:23:53;;;;;;;0.00;0.00;;;3.80;99.90;;;;;;6157388;23;20091;-90
2023/01/27 16:26:36;;;;;;;0.10;0.10;;;3.90;99.90;;;;;;6158670;23;20021;-89
2023/01/27 16:29:36;;;;;;;0.10;0.10;;;4.00;99.90;;;;;;6156452;23;20105;-92
2023/01/27 16:32:14;;;;;;;0.00;0.00;;;3.90;99.90;;;;;;6156967;23;20461;-89
2023/01/27 16:34:48;;;;;;;0.00;0.00;;;3.90;99.90;;;;;;6156121;23;20005;-88
2023/01/27 16:37:23;;;;;;;0.10;0.10;;;3.90;99.90;;;;;;6156429;23;20097;-88
2023/01/27 16:39:54;;;;;;;0.10;0.10;;;3.90;99.90;;;;;;6155405;23;20002;-88
2023/01/27 16:42:36;;;;;;;0.10;0.10;;;4.00;99.90;;;;;;6158484;23;20032;-89
2023/01/27 16:45:14;;;;;;;0.10;0.10;;;4.00;99.90;;;;;;6157017;23;20028;-91
2023/01/27 16:47:44;;;;;;;0.00;0.00;;;4.00;99.90;;;;;;6150038;23;20091;-88
2023/01/27 16:50:28;;;;;;;;;;;3.50;99.90;;;;;;6156117;23;20155;-88
2023/01/27 16:52:54;;;;;;;0.10;0.10;;;;;;;;;;6155901;23;19995;-88
2023/01/27 16:55:20;;;;;;;0.00;0.00;;;;;;;;;;6155467;23;20041;-89
2023/01/27 16:57:46;;;;;;;0.10;0.10;;;;;;;;;;6156662;23;20005;-90
2023/01/27 17:00:35;;;;;;;0.08;0.08;;;4.00;99.90;;;;;;6155441;23;20012;-89
2023/01/27 17:03:13;;;;;;;0.10;0.10;;;4.00;99.90;;;;;;6148909;23;20071;-89
2023/01/27 17:05:40;;;;;;;0.00;0.00;;;4.10;99.90;;;;;;6158388;23;20001;-91
2023/01/27 17:08:15;;;;;;;0.10;0.10;;;4.10;99.90;;;;;;6157770;23;20005;-88
2023/01/27 17:10:44;;;;;;;0.10;0.10;;;4.00;99.90;;;;;;6159101;23;20434;-89
2023/01/27 17:13:32;;;;;;;0.00;0.00;;;3.90;99.90;;;;;;6160134;23;20009;-88
2023/01/27 17:15:59;;;;;;;0.00;0.00;;;4.00;99.90;;;;;;6158388;23;20097;-88
2023/01/27 17:18:25;;;;;;;0.10;0.10;;;;;;;;;;6159084;23;20059;-88
2023/01/27 17:20:51;;;;;;;0.00;0.00;;;;;;;;;;6160467;23;20005;-88
2023/01/27 17:23:23;;;;;;;0.00;0.00;;;3.80;99.90;;;;;;6163280;23;20056;-90
2023/01/27 17:25:50;;;;;;;0.00;0.00;;;;;;;;;;6159941;23;20457;-89
2023/01/27 17:28:25;;;;;;;0.10;0.10;;;3.90;99.90;;;;;;6160819;23;20080;-89
2023/01/27 17:30:51;;;;;;;0.10;0.10;;;;;;;;;;6159170;23;20015;-89
2023/01/27 17:33:20;;;;;;;0.10;0.10;;;3.90;99.90;;;;;;6160532;23;20001;-91
2023/01/27 17:35:55;;;;;;;0.10;0.10;;;3.90;99.90;;;;;;6161202;23;20002;-88
2023/01/27 17:38:43;;;;;;;0.10;0.10;;;3.80;99.90;;;;;;6162138;23;19998;-91
2023/01/27 17:41:32;;;;;;;0.10;0.10;;;3.80;99.90;;;;;;6162105;23;20005;-88
2023/01/27 17:44:00;;;;;;;0.00;0.00;;;3.60;99.90;;;;;;6161084;23;20009;-89
2023/01/27 17:46:29;;;;;;;0.10;0.10;;;3.60;99.90;;;;;;6160438;23;20005;-90
2023/01/27 17:48:59;;;;;;;0.10;0.10;;;3.60;99.90;;;;;;6160771;23;20013;-90
2023/01/27 17:51:32;;;;;;;0.10;0.10;;;3.70;99.90;;;;;;6161788;23;20013;-88
2023/01/27 17:53:58;;;;;;;0.10;0.10;;;;;;;;;;6161818;23;20001;-90
2023/01/27 17:56:31;;;;;;;0.10;0.10;;;3.70;99.90;;;;;;6162373;23;20001;-89
2023/01/27 17:59:07;;;;;;;0.10;0.10;;;3.80;99.90;;;;;;6161190;23;20012;-89
2023/01/27 18:01:33;;;;;;;0.00;0.00;;;;;;;;;;6160954;23;20137;-89
2023/01/27 18:04:01;;;;;;;0.10;0.10;;;3.70;99.90;;;;;;6159407;23;20009;-90
2023/01/27 18:06:30;;;;;;;0.10;0.10;;;3.70;99.90;;;;;;6161121;23;20016;-88
2023/01/27 18:09:00;;;;;;;0.10;0.10;;;3.70;99.90;;;;;;6159012;23;20430;-89
2023/01/27 18:11:32;;;;;;;0.10;0.10;;;3.70;99.90;;;;;;6161194;23;20346;-89
2023/01/27 18:14:05;;;;;;;0.10;0.10;;;3.70;99.90;;;;;;6158686;23;20009;-89
2023/01/27 18:16:31;;;;;;;0.10;0.10;;;;;;;;;;6156332;23;20005;-88
2023/01/27 18:19:17;;;;;;;0.10;0.10;;;3.80;99.90;;;;;;6159774;23;20144;-90
2023/01/27 18:21:43;;;;;;;0.00;0.00;;;;;;;;;;6159750;23;20080;-90
2023/01/27 18:24:20;;;;;;;0.00;0.00;;;3.70;99.90;;;;;;6159817;23;20032;-90
2023/01/27 18:26:46;;;;;;;0.00;0.00;;;;;;;;;;6163103;23;20005;-89
2023/01/27 18:29:22;;;;;;;0.10;0.10;;;3.60;99.90;;;;;;6163317;23;20035;-89
2023/01/27 18:31:57;;;;;;;0.10;0.10;;;3.60;99.90;;;;;;6157850;23;20059;-89
2023/01/27 18:34:29;;;;;;;0.10;0.10;;;3.60;99.90;;;;;;6159559;23;20088;-89
2023/01/27 18:36:59;;;;;;;0.10;0.10;;;3.60;99.90;;;;;;6159770;23;20012;-89
2023/01/27 18:39:34;;;;;;;0.13;0.13;;;3.60;99.90;;;;;;6158665;23;20012;-90
2023/01/27 18:42:00;;;;;;;0.10;0.10;;;3.70;99.90;;;;;;6159921;23;20073;-90
2023/01/27 18:44:33;;;;;;;0.10;0.10;;;;;;;;;;6159065;23;20001;-91
2023/01/27 18:47:18;;;;;;;0.10;0.10;;;3.80;99.90;;;;;;6157021;23;20083;-91
2023/01/27 18:49:44;;;;;;;0.10;0.10;;;;;;;;;;6156189;23;20029;-89
2023/01/27 18:52:13;;;;;;;0.08;0.08;;;3.70;99.90;;;;;;6151584;23;20001;-91
2023/01/27 18:54:39;;;;;;;0.10;0.10;;;;;;;;;;6156239;23;20012;-88
2023/01/27 18:57:05;;;;;;;0.10;0.10;;;;;;;;;;6158644;23;20005;-89
2023/01/27 18:59:31;;;;;;;0.10;0.10;;;;;;;;;;6160408;23;20020;-90
2023/01/27 19:01:57;;;;;;;0.10;0.10;;;3.70;99.90;;;;;;6159105;23;20013;-90
2023/01/27 19:04:23;;;;;;;0.10;0.10;;;;;;;;;;6162036;23;20349;-91
2023/01/27 19:06:49;;;;;;;0.10;0.10;;;;;;;;;;6159858;23;20257;-91
2023/01/27 19:09:15;;;;;;;0.00;0.00;;;;;;;;;;6160246;23;20009;-88
2023/01/27 19:11:41;;;;;;;0.10;0.10;;;;;;;;;;6160395;23;20005;-89
2023/01/27 19:14:07;;;;;;;0.10;0.10;;;;;;;;;;6159080;23;20139;-88
2023/01/27 19:16:33;;;;;;;0.10;0.10;;;;;;;;;;6159263;23;20005;-88
2023/01/27 19:19:00;;;;;;;0.10;0.10;;;3.80;99.90;;;;;;6160740;23;20001;-89
2023/01/27 19:21:26;;;;;;;0.10;0.10;;;;;;;;;;6160692;23;20001;-89
2023/01/27 19:23:52;;;;;;;0.10;0.10;;;;;;;;;;6159840;23;20005;-89
2023/01/27 19:26:20;;;;;;;0.10;0.10;;;3.70;99.90;;;;;;6159644;23;20502;-89
2023/01/27 19:28:50;;;;;;;0.10;0.10;;;3.70;99.90;;;;;;6158807;23;20053;-90
2023/01/27 19:31:19;;;;;;;0.10;0.10;;;;;;;;;;6161351;23;20100;-91
2023/01/27 19:33:46;;;;;;;0.10;0.10;;;;;;;;;;6158641;23;20012;-90
2023/01/27 20:07:36;;;;;;;0.10;0.10;;;;;;;;;;6190426;23;20489;-90
2023/01/27 20:10:02;;;;;;;0.00;0.00;;;;;;;;;;6165785;23;20082;-90
2023/01/27 20:12:42;;;;;;;0.10;0.10;;;3.40;99.90;;;;;;6164266;23;20013;-92
2023/01/27 20:15:35;;;;;;;;;;;3.10;99.90;;;;;;6166181;23;20333;-90
2023/01/27 20:21:30;;;;;;;0.10;0.10;;;3.50;99.90;;;;;;6171092;23;20334;-91
2023/01/27 20:24:28;;;;;;;0.10;0.10;;;3.30;99.90;;;;;;6162010;23;20021;-91
2023/01/27 20:27:17;;;;;;;0.05;0.05;;;3.30;99.90;;;;;;6166772;23;20009;-89
2023/01/27 20:29:56;;;;;;;0.00;0.00;;;3.20;99.90;;;;;;6137447;23;20341;-90
2023/01/27 20:32:23;;;;;;;0.10;0.10;;;;;;;;;;6161305;23;20059;-91
2023/01/27 20:34:49;;;;;;;0.10;0.10;;;3.20;99.90;;;;;;6161636;23;20001;-93
2023/01/27 20:37:16;;;;;;;0.10;0.10;;;;;;;;;;6135330;23;20454;-91
2023/01/27 20:39:42;;;;;;;0.10;0.10;;;;;;;;;;6165428;23;20044;-89
2023/01/27 20:42:08;;;;;;;0.10;0.10;;;3.30;99.90;;;;;;6162823;23;20199;-89
2023/01/27 20:44:33;;;;;;;0.10;0.10;;;3.10;99.90;;;;;;6162779;23;20005;-89
2023/01/27 20:46:59;;;;;;;0.00;0.00;;;3.10;99.90;;;;;;6165610;23;20024;-89
2023/01/27 20:49:25;;;;;;;0.00;0.00;;;;;;;;;;6163948;23;20421;-89
2023/01/27 20:51:51;;;;;;;0.10;0.10;;;;;;;;;;6163723;23;20434;-89
2023/01/27 20:54:17;;;;;;;0.10;0.10;;;;;;;;;;6164470;23;20269;-89
2023/01/27 20:56:43;;;;;;;0.10;0.10;;;;;;;;;;6153045;23;20029;-90
2023/01/27 20:59:08;;;;;;;0.05;0.05;;;3.00;99.90;;;;;;6158477;23;20457;-89
2023/01/27 21:01:34;;;;;;;0.10;0.10;;;;;;;;;;6161259;23;20056;-90
2023/01/27 21:04:00;;;;;;;0.10;0.10;;;;;;;;;;6161907;23;20028;-89
2023/01/27 21:06:26;;;;;;;0.10;0.10;;;3.10;99.90;;;;;;6162786;23;20036;-91
2023/01/27 21:08:51;;;;;;;0.10;0.10;;;2.70;99.90;;;;;;6160242;23;20015;-90
2023/01/27 21:11:20;;;;;;;0.10;0.10;;;3.00;99.90;;;;;;6162250;23;20009;-90
2023/01/27 21:13:46;;;;;;;0.00;0.00;;;;;;;;;;6160625;23;20036;-90
2023/01/27 21:16:12;;;;;;;0.10;0.10;;;;;;;;;;6162350;23;20005;-90
2023/01/27 21:18:38;;;;;;;0.10;0.10;;;2.80;99.90;;;;;;6161396;23;20031;-90
2023/01/27 21:21:04;;;;;;;0.00;0.00;;;2.60;99.90;;;;;;6160955;23;20040;-90
2023/01/27 21:23:31;;;;;;;0.10;0.10;;;2.70;99.90;;;;;;6160523;23;20005;-90
2023/01/27 21:26:10;;;;;;;0.10;0.10;;;2.50;99.90;;;;;;6161505;23;20031;-88
2023/01/27 21:28:35;;;;;;;0.10;0.10;;;2.70;99.90;;;;;;6161030;23;20009;-91
2023/01/27 21:31:09;;;;;;;0.10;0.10;;;2.70;99.90;;;;;;6162129;23;20085;-89
2023/01/27 21:33:37;;;;;;;0.00;0.00;;;2.80;99.90;;;;;;6163247;23;20350;-90
2023/01/27 21:36:04;;;;;;;0.10;0.10;;;2.80;99.90;;;;;;6162811;23;20005;-92
2023/01/27 21:38:31;;;;;;;0.10;0.10;;;2.90;99.90;;;;;;6161215;23;20449;-90
2023/01/27 21:41:06;;;;;;;0.10;0.10;;;2.90;99.90;;;;;;6158307;23;20075;-89
2023/01/27 21:46:17;;;;;;;0.00;0.00;;;3.00;99.90;;;;;;6186937;23;20031;-89
2023/01/27 21:48:43;;;;;;;0.10;0.10;;;;;;;;;;6162540;23;20240;-89
2023/01/27 21:51:08;;;;;;;0.10;0.10;;;3.10;99.90;;;;;;6164082;23;20126;-88
2023/01/27 21:53:34;;;;;;;0.00;0.00;;;;;;;;;;6166239;23;20009;-89
2023/01/27 21:56:04;;;;;;;0.10;0.10;;;2.90;99.90;;;;;;6162000;23;20086;-90
2023/01/27 21:58:31;;;;;;;0.10;0.10;;;;;;;;;;6161275;23;20001;-89
2023/01/27 22:00:57;;;;;;;0.00;0.00;;;2.90;99.90;;;;;;6160756;23;20005;-90
2023/01/27 22:03:23;;;;;;;0.00;0.00;;;;;;;;;;6163093;23;20035;-89
2023/01/27 22:05:49;;;;;;;0.10;0.10;;;;;;;;;;6160547;23;20101;-90
2023/01/27 22:08:15;;;;;;;0.10;0.10;;;;;;;;;;6161105;23;20012;-92
2023/01/27 22:10:41;;;;;;;0.10;0.10;;;2.70;99.90;;;;;;6159473;23;20016;-90
2023/01/27 22:13:08;;;;;;;0.10;0.10;;;;;;;;;;6157700;23;20001;-90
2023/01/27 22:15:34;;;;;;;0.10;0.10;;;;;;;;;;6162485;23;20578;-90
2023/01/27 22:18:00;;;;;;;0.10;0.10;;;;;;;;;;6162157;23;20033;-92
2023/01/27 22:20:26;;;;;;;0.10;0.10;;;3.00;99.90;;;;;;6161495;23;20075;-90
2023/01/27 22:22:52;;;;;;;0.10;0.10;;;2.90;99.90;;;;;;6160810;23;20065;-89
2023/01/27 22:25:19;;;;;;;0.10;0.10;;;;;;;;;;6163106;23;20008;-90
2023/01/27 22:27:45;;;;;;;0.10;0.10;;;2.80;99.90;;;;;;6159164;23;20009;-91
2023/01/27 22:30:16;;;;;;;0.10;0.10;;;2.90;99.90;;;;;;6159406;23;20084;-89
2023/01/27 22:32:42;;;;;;;0.10;0.10;;;;;;;;;;6156534;23;20442;-90
2023/01/27 22:35:09;;;;;;;0.00;0.00;;;;;;;;;;6156234;23;20032;-91
2023/01/27 22:37:36;;;;;;;0.05;0.05;;;2.90;99.90;;;;;;6159949;23;20005;-91
2023/01/27 22:40:03;;;;;;;0.00;0.00;;;;;;;;;;6157802;23;20442;-91
2023/01/27 22:42:29;;;;;;;0.10;0.10;;;;;;;;;;6157863;23;20009;-91
2023/01/27 22:44:55;;;;;;;0.10;0.10;;;;;;;;;;6158355;23;20020;-90
2023/01/27 22:47:21;;;;;;;0.10;0.10;;;;;;;;;;6158026;23;20012;-90